createdAt,value
2022-11-07T00:00:09.371Z,96.65
2022-11-07T00:02:38.088Z,96.64
2022-11-07T00:05:05.310Z,96.41
2022-11-07T00:07:32.215Z,96.42
2022-11-07T00:09:59.040Z,96.42
2022-11-07T00:12:25.682Z,96.50
2022-11-07T00:14:52.413Z,96.42
2022-11-07T00:17:19.241Z,96.40
2022-11-07T00:19:45.864Z,96.67
2022-11-07T00:22:12.580Z,96.67
2022-11-07T00:24:39.287Z,96.51
2022-11-07T00:27:06.849Z,96.27
2022-11-07T00:29:33.808Z,96.24
2022-11-07T00:32:00.584Z,96.23
2022-11-07T00:34:27.204Z,96.41
2022-11-07T00:36:54.242Z,96.30
2022-11-07T00:39:20.998Z,96.58
2022-11-07T00:41:48.896Z,96.33
2022-11-07T00:44:15.807Z,96.35
2022-11-07T00:46:42.537Z,96.20
2022-11-07T00:49:09.344Z,96.28
2022-11-07T00:51:36.041Z,96.27
2022-11-07T00:54:04.045Z,96.32
2022-11-07T00:56:30.912Z,96.44
2022-11-07T00:58:58.397Z,96.21
2022-11-07T01:01:29.678Z,96.40
2022-11-07T01:04:15.368Z,96.22
2022-11-07T01:06:42.975Z,96.37
2022-11-07T01:09:11.628Z,96.30
2022-11-07T01:11:39.127Z,96.58
2022-11-07T01:14:06.364Z,96.68
2022-11-07T01:16:35.517Z,96.61
2022-11-07T01:19:02.970Z,96.64
2022-11-07T01:21:29.854Z,96.69
2022-11-07T01:23:56.505Z,96.73
2022-11-07T01:26:23.608Z,96.56
2022-11-07T01:28:50.345Z,96.66
2022-11-07T01:31:17.182Z,96.62
2022-11-07T01:33:44.155Z,96.83
2022-11-07T01:36:13.213Z,96.53
2022-11-07T01:38:41.798Z,96.39
2022-11-07T01:41:21.520Z,96.55
2022-11-07T01:44:22.829Z,96.61
2022-11-07T01:46:49.688Z,96.64
2022-11-07T01:49:34.948Z,96.42
2022-11-07T01:52:06.597Z,96.47
2022-11-07T01:54:48.081Z,96.28
2022-11-07T01:57:21.214Z,96.26
2022-11-07T01:59:48.293Z,96.25
2022-11-07T02:02:15.092Z,96.30
2022-11-07T02:04:42.254Z,96.34
2022-11-07T02:07:10.949Z,96.39
2022-11-07T02:09:37.851Z,96.48
2022-11-07T02:12:04.764Z,96.44
2022-11-07T02:14:31.559Z,96.38
2022-11-07T02:16:58.249Z,96.37
2022-11-07T02:19:33.153Z,96.49
2022-11-07T02:22:26.073Z,96.53
2022-11-07T02:24:55.193Z,96.34
2022-11-07T02:27:23.168Z,96.49
2022-11-07T02:29:52.292Z,96.27
2022-11-07T02:32:19.119Z,96.35
2022-11-07T02:34:48.099Z,96.34
2022-11-07T02:37:24.313Z,96.29
2022-11-07T02:39:51.051Z,96.38
2022-11-07T02:42:17.876Z,96.12
2022-11-07T02:44:45.221Z,96.39
2022-11-07T02:47:11.963Z,96.50
2022-11-07T02:49:38.730Z,96.22
2022-11-07T02:52:05.370Z,96.33
2022-11-07T02:54:32.171Z,96.31
2022-11-07T02:56:59.070Z,96.46
2022-11-07T02:59:27.179Z,96.43
2022-11-07T03:01:54.198Z,96.28
2022-11-07T03:04:21.050Z,96.34
2022-11-07T03:06:47.827Z,96.39
2022-11-07T03:09:14.566Z,96.30
2022-11-07T03:11:41.677Z,96.26
2022-11-07T03:14:08.388Z,96.39
2022-11-07T03:16:35.120Z,96.25
2022-11-07T03:19:01.799Z,96.36
2022-11-07T03:21:28.557Z,96.34
2022-11-07T03:23:55.311Z,96.07
2022-11-07T03:26:23.379Z,96.08
2022-11-07T03:28:50.122Z,96.10
2022-11-07T03:31:16.984Z,96.07
2022-11-07T03:33:44.112Z,96.07
2022-11-07T03:36:10.925Z,95.87
2022-11-07T03:38:37.614Z,95.82
2022-11-07T03:41:04.394Z,95.89
2022-11-07T03:43:31.169Z,95.77
2022-11-07T03:45:57.910Z,95.82
2022-11-07T03:48:24.754Z,95.84
2022-11-07T03:50:51.452Z,95.89
2022-11-07T03:53:24.812Z,95.91
2022-11-07T03:55:54.491Z,95.80
2022-11-07T03:58:21.241Z,95.96
2022-11-07T04:00:47.974Z,95.81
2022-11-07T04:03:14.883Z,95.96
2022-11-07T04:05:41.784Z,95.77
2022-11-07T04:08:08.406Z,95.81
2022-11-07T04:10:35.207Z,95.86
2022-11-07T04:13:20.542Z,95.82
2022-11-07T04:16:06.021Z,95.69
2022-11-07T04:18:32.772Z,95.71
2022-11-07T04:20:59.440Z,95.47
2022-11-07T04:23:26.365Z,95.46
2022-11-07T04:26:11.893Z,95.45
2022-11-07T04:28:38.917Z,95.24
2022-11-07T04:31:05.828Z,95.19
2022-11-07T04:33:32.462Z,94.96
2022-11-07T04:35:59.248Z,94.85
2022-11-07T04:38:25.912Z,94.88
2022-11-07T04:40:54.485Z,94.98
2022-11-07T04:43:21.751Z,94.93
2022-11-07T04:45:48.474Z,94.74
2022-11-07T04:48:15.482Z,94.66
2022-11-07T04:50:42.229Z,94.56
2022-11-07T04:53:12.633Z,94.53
2022-11-07T04:55:39.529Z,94.34
2022-11-07T04:58:06.274Z,94.31
2022-11-07T05:00:33.188Z,94.18
2022-11-07T05:03:00.112Z,94.13
2022-11-07T05:05:26.938Z,94.03
2022-11-07T05:07:53.603Z,94.01
2022-11-07T05:10:28.087Z,93.88
2022-11-07T05:12:54.958Z,93.87
2022-11-07T05:15:21.625Z,93.79
2022-11-07T05:17:48.497Z,93.50
2022-11-07T05:20:38.081Z,93.53
2022-11-07T05:23:18.709Z,93.43
2022-11-07T05:25:50.741Z,93.39
2022-11-07T05:28:36.803Z,93.43
2022-11-07T05:31:06.113Z,93.19
2022-11-07T05:33:32.951Z,93.12
2022-11-07T05:36:09.385Z,92.91
2022-11-07T05:38:36.643Z,92.80
2022-11-07T05:41:04.611Z,92.73
2022-11-07T05:43:31.381Z,92.73
2022-11-07T05:46:01.041Z,92.74
2022-11-07T05:48:27.811Z,92.64
2022-11-07T05:50:54.603Z,92.64
2022-11-07T05:53:21.574Z,92.53
2022-11-07T05:55:48.402Z,92.63
2022-11-07T05:58:15.814Z,92.32
2022-11-07T06:00:42.727Z,92.38
2022-11-07T06:03:09.954Z,92.42
2022-11-07T06:05:40.895Z,92.55
2022-11-07T06:08:08.349Z,92.20
2022-11-07T06:10:39.715Z,92.15
2022-11-07T06:13:08.489Z,92.36
2022-11-07T06:15:35.404Z,92.02
2022-11-07T06:18:02.430Z,92.03
2022-11-07T06:20:29.413Z,91.92
2022-11-07T06:23:01.385Z,92.00
2022-11-07T06:25:28.282Z,91.80
2022-11-07T06:28:02.335Z,91.78
2022-11-07T06:30:30.163Z,91.83
2022-11-07T06:33:00.396Z,91.79
2022-11-07T06:35:27.085Z,91.63
2022-11-07T06:37:53.823Z,91.34
2022-11-07T06:40:20.559Z,91.24
2022-11-07T06:42:47.181Z,91.16
2022-11-07T06:45:16.326Z,90.93
2022-11-07T06:47:43.102Z,90.90
2022-11-07T06:50:09.829Z,90.74
2022-11-07T06:52:36.573Z,90.92
2022-11-07T06:55:03.513Z,90.81
2022-11-07T06:57:30.213Z,90.94
2022-11-07T06:59:56.900Z,90.85
2022-11-07T07:02:44.188Z,90.67
2022-11-07T07:05:10.438Z,90.61
2022-11-07T07:07:37.489Z,90.34
2022-11-07T07:10:04.557Z,90.45
2022-11-07T07:12:31.320Z,90.37
2022-11-07T07:14:58.065Z,90.24
2022-11-07T07:17:24.734Z,90.35
2022-11-07T07:19:51.674Z,90.17
2022-11-07T07:22:18.370Z,90.09
2022-11-07T07:24:45.985Z,89.95
2022-11-07T07:27:12.730Z,90.12
2022-11-07T07:29:39.476Z,89.97
2022-11-07T07:32:06.133Z,89.92
2022-11-07T07:34:32.886Z,89.92
2022-11-07T07:36:59.673Z,89.96
2022-11-07T07:39:27.952Z,89.87
2022-11-07T07:41:54.690Z,89.84
2022-11-07T07:44:21.639Z,89.84
2022-11-07T07:46:48.277Z,89.61
2022-11-07T07:49:15.171Z,89.69
2022-11-07T07:51:41.812Z,89.92
2022-11-07T07:54:10.351Z,89.84
2022-11-07T07:59:00.973Z,89.92
2022-11-07T08:01:27.814Z,90.05
2022-11-07T08:04:02.867Z,89.98
2022-11-07T08:06:31.015Z,89.90
2022-11-07T08:08:57.932Z,90.08
2022-11-07T08:11:25.125Z,90.08
2022-11-07T08:13:51.862Z,90.25
2022-11-07T08:16:18.661Z,90.38
2022-11-07T08:18:45.381Z,90.37
2022-11-07T08:21:12.437Z,90.47
2022-11-07T08:23:39.240Z,90.65
2022-11-07T08:26:06.068Z,91.05
2022-11-07T08:28:35.454Z,90.99
2022-11-07T08:31:02.191Z,91.09
2022-11-07T08:33:29.511Z,91.44
2022-11-07T08:35:57.221Z,91.51
2022-11-07T08:38:24.075Z,91.65
2022-11-07T08:40:50.841Z,91.74
2022-11-07T08:43:18.542Z,91.68
2022-11-07T08:45:46.227Z,91.89
2022-11-07T08:48:13.211Z,91.85
2022-11-07T08:50:39.940Z,91.86
2022-11-07T08:53:06.776Z,92.04
2022-11-07T08:55:33.424Z,91.95
2022-11-07T08:58:01.422Z,92.10
2022-11-07T09:00:28.461Z,92.28
2022-11-07T09:05:42.028Z,92.49
2022-11-07T09:08:08.719Z,92.62
2022-11-07T09:10:35.460Z,92.73
2022-11-07T09:13:02.156Z,92.86
2022-11-07T09:15:29.018Z,92.90
2022-11-07T09:17:55.809Z,93.06
2022-11-07T09:20:22.567Z,93.32
2022-11-07T09:22:49.458Z,93.16
2022-11-07T09:25:16.546Z,93.27
2022-11-07T09:27:43.331Z,93.18
2022-11-07T09:30:10.463Z,93.33
2022-11-07T09:32:45.777Z,93.37
2022-11-07T09:35:13.932Z,93.33
2022-11-07T09:37:41.497Z,93.34
2022-11-07T09:40:25.562Z,93.29
2022-11-07T09:43:11.154Z,93.43
2022-11-07T09:46:00.453Z,93.53
2022-11-07T09:48:27.628Z,93.63
2022-11-07T09:50:54.357Z,93.66
2022-11-07T09:53:56.120Z,93.88
2022-11-07T09:56:23.742Z,93.76
2022-11-07T09:58:54.823Z,94.03
2022-11-07T10:01:21.853Z,94.14
2022-11-07T10:04:18.036Z,94.24
2022-11-07T10:06:51.754Z,94.44
2022-11-07T10:09:32.499Z,94.52
2022-11-07T10:12:17.091Z,94.71
2022-11-07T10:14:47.452Z,94.62
2022-11-07T10:17:20.474Z,94.86
2022-11-07T10:20:05.368Z,94.97
2022-11-07T10:22:59.335Z,94.89
2022-11-07T10:25:45.441Z,94.46
2022-11-07T10:28:16.643Z,94.99
2022-11-07T10:30:44.661Z,94.79
2022-11-07T10:33:19.441Z,94.53
2022-11-07T10:35:49.160Z,94.68
2022-11-07T10:38:26.358Z,94.71
2022-11-07T10:40:53.148Z,94.83
2022-11-07T10:43:26.299Z,94.93
2022-11-07T10:45:53.037Z,94.92
2022-11-07T10:48:20.021Z,94.87
2022-11-07T10:50:53.675Z,94.81
2022-11-07T10:53:21.209Z,94.84
2022-11-07T10:55:49.439Z,94.69
2022-11-07T10:58:21.046Z,94.54
2022-11-07T11:00:58.157Z,94.67
2022-11-07T11:03:41.799Z,94.36
2022-11-07T11:06:31.259Z,94.48
2022-11-07T11:08:58.449Z,94.34
2022-11-07T11:11:29.014Z,94.05
2022-11-07T11:14:12.637Z,94.08
2022-11-07T11:16:40.662Z,93.94
2022-11-07T11:19:18.250Z,93.82
2022-11-07T11:21:46.369Z,93.65
2022-11-07T11:24:23.565Z,93.68
2022-11-07T11:26:51.060Z,93.51
2022-11-07T11:29:24.337Z,93.35
2022-11-07T11:31:51.960Z,93.25
2022-11-07T11:34:21.475Z,93.04
2022-11-07T11:36:57.715Z,92.79
2022-11-07T11:39:46.719Z,92.65
2022-11-07T11:42:40.061Z,92.52
2022-11-07T11:45:48.722Z,92.23
2022-11-07T11:48:15.466Z,92.03
2022-11-07T11:50:51.252Z,91.80
2022-11-07T11:53:23.225Z,91.78
2022-11-07T11:56:07.884Z,91.77
2022-11-07T11:59:12.417Z,91.43
2022-11-07T12:02:16.824Z,91.23
2022-11-07T12:07:53.594Z,90.76
2022-11-07T12:10:36.220Z,90.84
2022-11-07T12:13:28.526Z,90.69
2022-11-07T12:16:06.159Z,90.52
2022-11-07T12:18:54.737Z,90.08
2022-11-07T12:21:32.257Z,90.09
2022-11-07T12:24:20.407Z,89.70
2022-11-07T12:26:51.515Z,89.40
2022-11-07T12:29:18.243Z,89.71
2022-11-07T12:32:06.548Z,89.71
2022-11-07T12:35:00.831Z,89.48
2022-11-07T12:37:57.627Z,89.31
2022-11-07T12:40:29.154Z,89.15
2022-11-07T12:43:17.435Z,89.18
2022-11-07T12:46:03.919Z,89.04
2022-11-07T12:48:59.693Z,88.67
2022-11-07T12:51:40.178Z,88.28
2022-11-07T12:54:16.521Z,87.99
2022-11-07T12:56:43.541Z,87.85
2022-11-07T12:59:13.381Z,87.76
2022-11-07T13:01:46.631Z,87.83
2022-11-07T13:04:22.415Z,87.58
2022-11-07T13:06:54.647Z,87.61
2022-11-07T13:09:33.262Z,87.45
2022-11-07T13:12:06.413Z,87.33
2022-11-07T13:14:34.632Z,87.31
2022-11-07T13:17:01.365Z,87.35
2022-11-07T13:19:34.943Z,87.34
2022-11-07T13:22:02.655Z,87.25
2022-11-07T13:24:30.029Z,87.14
2022-11-07T13:26:57.837Z,86.80
2022-11-07T13:29:30.741Z,86.61
2022-11-07T13:32:11.688Z,86.54
2022-11-07T13:34:55.713Z,86.51
2022-11-07T13:37:43.512Z,86.43
2022-11-07T13:40:23.116Z,86.33
2022-11-07T13:42:51.881Z,86.48
2022-11-07T13:45:27.937Z,86.47
2022-11-07T13:47:55.950Z,86.35
2022-11-07T13:50:39.180Z,86.30
2022-11-07T13:53:07.603Z,86.34
2022-11-07T13:55:44.022Z,86.41
2022-11-07T13:58:13.334Z,86.41
2022-11-07T14:00:40.176Z,86.26
2022-11-07T14:03:07.148Z,86.28
2022-11-07T14:05:35.194Z,86.25
2022-11-07T14:08:03.022Z,86.26
2022-11-07T14:10:34.239Z,86.27
2022-11-07T14:13:09.849Z,86.32
2022-11-07T14:15:36.859Z,86.28
2022-11-07T14:18:03.997Z,86.18
2022-11-07T14:20:30.807Z,86.18
2022-11-07T14:22:58.624Z,86.07
2022-11-07T14:25:33.454Z,85.81
2022-11-07T14:28:00.741Z,85.61
2022-11-07T14:30:31.705Z,85.56
2022-11-07T14:33:00.073Z,85.48
2022-11-07T14:35:31.045Z,85.59
2022-11-07T14:37:58.377Z,85.50
2022-11-07T14:40:25.404Z,85.47
2022-11-07T14:42:52.205Z,85.70
2022-11-07T14:45:39.157Z,85.60
2022-11-07T14:48:09.849Z,85.67
2022-11-07T14:50:36.579Z,85.72
2022-11-07T14:53:09.016Z,85.75
2022-11-07T14:55:47.042Z,86.14
2022-11-07T14:58:13.937Z,85.96
2022-11-07T15:00:51.139Z,85.77
2022-11-07T15:03:22.499Z,85.90
2022-11-07T15:05:49.388Z,85.83
2022-11-07T15:08:29.914Z,85.87
2022-11-07T15:11:01.155Z,86.05
2022-11-07T15:13:27.906Z,85.92
2022-11-07T15:16:02.048Z,85.80
2022-11-07T15:18:28.871Z,86.02
2022-11-07T15:20:59.299Z,86.00
2022-11-07T15:23:33.521Z,85.88
2022-11-07T15:26:10.725Z,85.79
2022-11-07T15:28:45.941Z,86.03
2022-11-07T15:31:31.123Z,86.07
2022-11-07T15:33:58.709Z,86.08
2022-11-07T15:36:25.479Z,85.87
2022-11-07T15:38:52.482Z,85.93
2022-11-07T15:41:19.274Z,85.91
2022-11-07T15:43:45.909Z,85.77
2022-11-07T15:46:23.298Z,85.70
2022-11-07T15:48:50.035Z,85.85
2022-11-07T15:51:16.747Z,85.91
2022-11-07T15:53:43.478Z,85.81
2022-11-07T15:56:11.186Z,85.69
2022-11-07T15:58:37.891Z,85.78
2022-11-07T16:01:04.670Z,86.11
2022-11-07T16:03:31.408Z,86.25
2022-11-07T16:06:01.590Z,86.02
2022-11-07T16:08:29.036Z,86.12
2022-11-07T16:11:01.114Z,86.14
2022-11-07T16:13:28.502Z,86.52
2022-11-07T16:16:00.052Z,86.43
2022-11-07T16:18:26.885Z,86.49
2022-11-07T16:20:53.597Z,86.64
2022-11-07T16:23:20.360Z,86.55
2022-11-07T16:25:47.697Z,86.63
2022-11-07T16:28:27.307Z,86.67
2022-11-07T16:30:54.357Z,86.39
2022-11-07T16:33:21.059Z,86.45
2022-11-07T16:35:52.885Z,86.70
2022-11-07T16:38:20.399Z,86.58
2022-11-07T16:40:47.292Z,86.52
2022-11-07T16:43:14.056Z,86.55
2022-11-07T16:45:45.639Z,86.52
2022-11-07T16:48:24.437Z,86.54
2022-11-07T16:50:51.346Z,86.52
2022-11-07T16:53:18.080Z,86.34
2022-11-07T16:55:49.507Z,86.47
2022-11-07T16:58:28.584Z,86.44
2022-11-07T17:01:05.349Z,86.41
2022-11-07T17:03:32.518Z,86.23
2022-11-07T17:06:00.285Z,86.06
2022-11-07T17:08:31.557Z,86.12
2022-11-07T17:10:58.273Z,86.18
2022-11-07T17:13:24.973Z,86.16
2022-11-07T17:15:51.720Z,86.08
2022-11-07T17:18:19.356Z,85.99
2022-11-07T17:20:51.337Z,85.80
2022-11-07T17:23:18.590Z,85.95
2022-11-07T17:25:50.301Z,85.68
2022-11-07T17:28:17.636Z,85.72
2022-11-07T17:30:44.724Z,85.52
2022-11-07T17:33:11.472Z,85.43
2022-11-07T17:35:38.223Z,85.55
2022-11-07T17:38:05.134Z,85.45
2022-11-07T17:40:32.250Z,85.44
2022-11-07T17:42:59.076Z,85.46
2022-11-07T17:45:26.058Z,85.15
2022-11-07T17:47:52.879Z,85.13
2022-11-07T17:50:20.373Z,85.00
2022-11-07T17:52:47.391Z,84.97
2022-11-07T17:55:14.215Z,85.09
2022-11-07T17:57:41.109Z,85.21
2022-11-07T18:00:19.134Z,85.25
2022-11-07T18:02:46.334Z,85.29
2022-11-07T18:05:14.999Z,85.41
2022-11-07T18:07:42.012Z,85.49
2022-11-07T18:10:09.378Z,85.29
2022-11-07T18:12:36.136Z,85.33
2022-11-07T18:15:03.785Z,85.62
2022-11-07T18:17:30.864Z,85.63
2022-11-07T18:19:57.594Z,85.61
2022-11-07T18:22:24.369Z,85.64
2022-11-07T18:24:50.994Z,85.70
2022-11-07T18:27:17.829Z,85.77
2022-11-07T18:29:44.527Z,85.74
2022-11-07T18:32:11.351Z,85.76
2022-11-07T18:34:38.349Z,86.07
2022-11-07T18:37:05.097Z,86.01
2022-11-07T18:39:32.772Z,86.13
2022-11-07T18:41:59.579Z,85.93
2022-11-07T18:44:26.338Z,86.17
2022-11-07T18:46:53.130Z,86.00
2022-11-07T18:49:19.867Z,85.98
2022-11-07T18:51:46.904Z,85.59
2022-11-07T18:54:14.006Z,85.56
2022-11-07T18:56:41.518Z,85.89
2022-11-07T18:59:08.250Z,85.69
2022-11-07T19:01:35.475Z,85.82
2022-11-07T19:04:03.592Z,85.64
2022-11-07T19:06:32.140Z,86.05
2022-11-07T19:08:59.019Z,85.97
2022-11-07T19:11:28.727Z,86.24
2022-11-07T19:13:57.034Z,86.13
2022-11-07T19:16:23.757Z,86.39
2022-11-07T19:18:50.781Z,86.45
2022-11-07T19:21:20.005Z,86.75
2022-11-07T19:23:47.574Z,86.80
2022-11-07T19:26:14.347Z,86.63
2022-11-07T19:28:41.365Z,86.71
2022-11-07T19:31:10.786Z,86.86
2022-11-07T19:33:37.664Z,86.35
2022-11-07T19:36:05.430Z,86.39
2022-11-07T19:38:32.687Z,86.31
2022-11-07T19:41:05.791Z,86.55
2022-11-07T19:43:32.803Z,86.49
2022-11-07T19:45:59.809Z,86.67
2022-11-07T19:48:26.451Z,86.64
2022-11-07T19:50:53.743Z,86.74
2022-11-07T19:53:21.591Z,86.89
2022-11-07T19:55:48.362Z,86.67
2022-11-07T19:58:15.942Z,86.82
2022-11-07T20:00:43.276Z,86.84
2022-11-07T20:03:10.271Z,86.41
2022-11-07T20:05:39.119Z,86.49
2022-11-07T20:08:05.972Z,86.28
2022-11-07T20:10:34.180Z,86.52
2022-11-07T20:15:57.744Z,86.63
2022-11-07T20:18:24.619Z,86.49
2022-11-07T20:20:51.330Z,86.27
2022-11-07T20:23:18.411Z,86.29
2022-11-07T20:25:45.548Z,85.88
2022-11-07T20:28:12.261Z,85.99
2022-11-07T20:30:42.993Z,86.18
2022-11-07T20:33:09.818Z,86.11
2022-11-07T20:35:36.466Z,86.23
2022-11-07T20:38:03.278Z,86.29
2022-11-07T20:40:31.830Z,86.00
2022-11-07T20:43:00.247Z,86.04
2022-11-07T20:45:27.001Z,86.26
2022-11-07T20:47:53.700Z,86.07
2022-11-07T20:50:20.517Z,85.99
2022-11-07T20:52:47.157Z,85.80
2022-11-07T20:55:14.018Z,85.67
2022-11-07T20:57:40.649Z,85.96
2022-11-07T21:00:08.223Z,85.94
2022-11-07T21:02:35.018Z,85.92
2022-11-07T21:05:18.362Z,85.92
2022-11-07T21:07:45.401Z,85.92
2022-11-07T21:10:12.204Z,86.10
2022-11-07T21:12:38.901Z,85.89
2022-11-07T21:15:06.935Z,85.74
2022-11-07T21:17:33.652Z,85.87
2022-11-07T21:20:00.416Z,85.91
2022-11-07T21:22:29.550Z,85.85
2022-11-07T21:24:56.858Z,85.98
2022-11-07T21:27:23.570Z,85.98
2022-11-07T21:29:50.351Z,86.07
2022-11-07T21:32:17.059Z,85.90
2022-11-07T21:34:46.295Z,85.85
2022-11-07T21:37:13.116Z,86.11
2022-11-07T21:39:39.842Z,85.82
2022-11-07T21:42:06.599Z,85.81
2022-11-07T21:44:33.275Z,85.82
2022-11-07T21:47:00.017Z,85.99
2022-11-07T21:49:29.125Z,85.80
2022-11-07T21:51:57.061Z,85.89
2022-11-07T21:54:24.789Z,85.77
2022-11-07T21:56:51.741Z,85.94
2022-11-07T21:59:19.541Z,86.10
2022-11-07T22:01:48.780Z,85.76
2022-11-07T22:04:15.994Z,85.93
2022-11-07T22:06:44.337Z,85.80
2022-11-07T22:09:13.943Z,85.82
2022-11-07T22:11:40.688Z,86.00
2022-11-07T22:14:07.401Z,85.79
2022-11-07T22:16:34.479Z,85.52
2022-11-07T22:19:01.519Z,85.94
2022-11-07T22:21:28.336Z,86.18
2022-11-07T22:23:55.434Z,86.09
2022-11-07T22:26:23.514Z,86.22
2022-11-07T22:28:50.314Z,86.27
2022-11-07T22:31:17.832Z,86.16
2022-11-07T22:33:45.922Z,86.28
2022-11-07T22:36:12.849Z,86.39
2022-11-07T22:38:39.655Z,86.38
2022-11-07T22:41:11.501Z,86.49
2022-11-07T22:43:38.398Z,86.61
2022-11-07T22:46:05.890Z,86.50
2022-11-07T22:48:32.975Z,86.67
2022-11-07T22:51:06.887Z,86.45
2022-11-07T22:53:34.059Z,86.65
2022-11-07T22:56:21.060Z,86.90
2022-11-07T22:58:47.861Z,86.97
2022-11-07T23:01:16.231Z,86.99
2022-11-07T23:03:42.975Z,86.85
2022-11-07T23:06:09.773Z,86.81
2022-11-07T23:08:36.574Z,86.53
2022-11-07T23:11:43.504Z,86.52
2022-11-07T23:14:04.576Z,86.74
2022-11-07T23:16:37.482Z,86.57
2022-11-07T23:19:08.816Z,86.47
2022-11-07T23:21:35.755Z,86.39
2022-11-07T23:24:02.684Z,86.48
2022-11-07T23:26:35.902Z,86.58
2022-11-07T23:29:11.233Z,86.41
2022-11-07T23:31:39.874Z,86.15
2022-11-07T23:34:06.825Z,86.10
2022-11-07T23:36:33.609Z,85.97
2022-11-07T23:39:06.882Z,86.01
2022-11-07T23:41:33.929Z,85.89
2022-11-07T23:44:00.832Z,85.73
2022-11-07T23:46:46.073Z,85.56
2022-11-07T23:49:31.555Z,85.47
2022-11-07T23:51:58.402Z,85.67
2022-11-07T23:55:03.477Z,85.71
2022-11-07T23:57:33.283Z,85.46
